Time;durP1;ratioP1;P1;durP2;ratioP2;P2;SDS_P1;SDS_P2;PMS_P1;PMS_P2;Temp;Humidity;BMP_temperature;BMP_pressure;BME280_temperature;BME280_humidity;BME280_pressure;Samples;Min_cycle;Max_cycle;Signal;HPM_P1;HPM_P2
2021/09/19 00:02:16;;;;;;;6.23;4.90;;;;;;;;;;5035621;28;20985;-78
2021/09/19 00:04:42;;;;;;;4.67;4.27;;;;;;;;;;5036079;28;20419;-79
2021/09/19 00:07:08;;;;;;;8.30;4.40;;;;;;;;;;5036046;28;20417;-79
2021/09/19 00:09:34;;;;;;;5.97;4.67;;;;;;;;;;5034876;28;20432;-79
2021/09/19 00:12:00;;;;;;;5.60;4.90;;;;;;;;;;5035555;28;20843;-79
2021/09/19 00:14:27;;;;;;;7.37;5.07;;;;;;;;;;5037801;28;20439;-79
2021/09/19 00:16:53;;;;;;;5.77;5.17;;;;;;;;;;5035795;28;20386;-78
2021/09/19 00:19:20;;;;;;;7.00;5.30;;;;;;;;;;5035592;28;20525;-78
2021/09/19 00:21:46;;;;;;;7.70;5.90;;;;;;;;;;5035175;28;20822;-80
2021/09/19 00:24:12;;;;;;;6.27;4.27;;;;;;;;;;5035666;28;20894;-79
2021/09/19 00:26:38;;;;;;;5.47;4.43;;;;;;;;;;5035480;28;20383;-80
2021/09/19 00:29:04;;;;;;;6.33;4.83;;;;;;;;;;5034346;28;20543;-78
2021/09/19 00:31:31;;;;;;;7.07;4.50;;;;;;;;;;5035087;28;20427;-78
2021/09/19 00:33:57;;;;;;;9.20;4.47;;;;;;;;;;5033946;28;20470;-79
2021/09/19 00:36:22;;;;;;;9.20;6.00;;;;;;;;;;5035554;28;20427;-78
2021/09/19 00:38:48;;;;;;;6.60;5.43;;;;;;;;;;5034161;28;20939;-79
2021/09/19 00:41:14;;;;;;;5.60;4.60;;;;;;;;;;5034929;28;20439;-78
2021/09/19 00:43:41;;;;;;;5.60;4.77;;;;;;;;;;5034787;28;20894;-80
2021/09/19 00:46:07;;;;;;;6.43;4.40;;;;;;;;;;5035068;28;20500;-78
2021/09/19 00:48:33;;;;;;;4.97;4.30;;;;;;;;;;5035446;28;20409;-80
2021/09/19 00:50:59;;;;;;;6.10;4.63;;;;;;;;;;5035098;28;20478;-80
2021/09/19 00:53:25;;;;;;;6.17;4.30;;;;;;;;;;5034111;28;20778;-79
2021/09/19 00:55:52;;;;;;;4.23;3.83;;;;;;;;;;5035038;28;21005;-78
2021/09/19 00:58:18;;;;;;;4.50;3.80;;;;;;;;;;5035068;28;20417;-79
2021/09/19 01:00:49;;;;;;;14.63;4.50;;;;;;;;;;5036231;28;20434;-79
2021/09/19 01:03:16;;;;;;;4.60;4.20;;;;;;;;;;5035201;28;20520;-79
2021/09/19 01:05:42;;;;;;;5.60;4.40;;;;;;;;;;5034865;28;20552;-78
2021/09/19 01:08:08;;;;;;;4.93;4.30;;;;;;;;;;5034695;28;20413;-78
2021/09/19 01:10:34;;;;;;;4.77;3.83;;;;;;;;;;5034737;28;20404;-78
2021/09/19 01:13:01;;;;;;;3.70;3.30;;;;;;;;;;5034433;28;20508;-79
2021/09/19 01:15:28;;;;;;;5.07;3.63;;;;;;;;;;5034774;28;20475;-78
2021/09/19 01:17:55;;;;;;;4.13;3.80;;;;;;;;;;5034709;28;20482;-78
2021/09/19 01:20:21;;;;;;;3.67;3.33;;;;;;;;;;5033152;28;20425;-79
2021/09/19 01:23:09;;;;;;;4.80;4.20;;;;;;;;;;5034232;28;20504;-79
2021/09/19 01:25:35;;;;;;;4.60;3.73;;;;;;;;;;5034517;28;20836;-78
2021/09/19 01:28:01;;;;;;;3.87;3.57;;;;;;;;;;5034360;28;20420;-78
2021/09/19 01:30:28;;;;;;;5.33;3.80;;;;;;;;;;5034513;28;20466;-79
2021/09/19 01:32:54;;;;;;;4.23;3.83;;;;;;;;;;5032750;28;20448;-79
2021/09/19 01:35:20;;;;;;;4.50;4.10;;;;;;;;;;5034486;28;20816;-79
2021/09/19 01:37:46;;;;;;;4.20;3.80;;;;;;;;;;5034636;28;20932;-78
2021/09/19 01:40:12;;;;;;;3.80;3.50;;;;;;;;;;5034422;28;20409;-79
2021/09/19 01:42:39;;;;;;;5.00;3.93;;;;;;;;;;5033699;28;20411;-79
2021/09/19 01:45:06;;;;;;;5.63;4.10;;;;;;;;;;5034112;28;20491;-79
2021/09/19 01:47:32;;;;;;;4.23;3.80;;;;;;;;;;5034113;28;20462;-80
2021/09/19 01:49:58;;;;;;;3.93;3.30;;;;;;;;;;5032974;28;20424;-78
2021/09/19 01:52:24;;;;;;;3.60;3.30;;;;;;;;;;5033574;28;20599;-78
2021/09/19 01:54:50;;;;;;;3.60;3.30;;;;;;;;;;5033746;28;20446;-77
2021/09/19 01:57:21;;;;;;;3.90;3.50;;;;;;;;;;5033343;28;20405;-79
2021/09/19 01:59:51;;;;;;;4.70;3.60;;;;;;;;;;5032581;28;20725;-79
2021/09/19 02:02:18;;;;;;;3.73;3.07;;;;;;;;;;5033347;28;20474;-79
2021/09/19 02:04:44;;;;;;;3.17;2.87;;;;;;;;;;5032732;28;20470;-78
2021/09/19 02:07:10;;;;;;;4.90;3.23;;;;;;;;;;5033769;28;20390;-80
2021/09/19 02:09:36;;;;;;;3.40;3.07;;;;;;;;;;5033757;28;20471;-79
2021/09/19 02:12:02;;;;;;;3.53;3.20;;;;;;;;;;5033465;28;20433;-79
2021/09/19 02:14:28;;;;;;;3.57;3.27;;;;;;;;;;5033398;28;20456;-79
2021/09/19 02:16:54;;;;;;;4.50;3.33;;;;;;;;;;5032433;28;20459;-79
2021/09/19 02:19:20;;;;;;;3.40;2.80;;;;;;;;;;5033505;28;20405;-80
2021/09/19 02:21:46;;;;;;;3.40;3.10;;;;;;;;;;5033202;28;20531;-78
2021/09/19 02:24:12;;;;;;;4.40;3.27;;;;;;;;;;5033482;28;20838;-80
2021/09/19 02:26:38;;;;;;;5.67;3.23;;;;;;;;;;5033338;28;20459;-79
2021/09/19 02:29:04;;;;;;;6.30;3.57;;;;;;;;;;5033360;28;20421;-80
2021/09/19 02:31:33;;;;;;;5.17;3.33;;;;;;;;;;5032934;28;20412;-79
2021/09/19 02:33:59;;;;;;;4.43;3.80;;;;;;;;;;5033129;28;20828;-78
2021/09/19 02:36:26;;;;;;;6.20;3.70;;;;;;;;;;5033258;28;20449;-77
2021/09/19 02:38:53;;;;;;;5.23;3.03;;;;;;;;;;5033096;28;20463;-78
2021/09/19 02:41:19;;;;;;;4.00;3.10;;;;;;;;;;5032968;28;20434;-78
2021/09/19 02:43:46;;;;;;;5.33;3.30;;;;;;;;;;5033240;28;20910;-79
2021/09/19 02:46:12;;;;;;;6.03;4.10;;;;;;;;;;5033164;28;20388;-80
2021/09/19 02:48:38;;;;;;;3.53;3.00;;;;;;;;;;5033124;28;20754;-78
2021/09/19 02:51:07;;;;;;;11.23;4.07;;;;;;;;;;5032600;28;20420;-80
2021/09/19 02:53:33;;;;;;;4.63;3.17;;;;;;;;;;5033332;28;20483;-80
2021/09/19 02:55:59;;;;;;;7.97;3.67;;;;;;;;;;5033159;28;20845;-80
2021/09/19 02:58:24;;;;;;;5.10;3.50;;;;;;;;;;5033340;28;20409;-80
2021/09/19 03:00:50;;;;;;;7.40;2.80;;;;;;;;;;5031802;28;20441;-78
2021/09/19 03:03:16;;;;;;;4.17;3.40;;;;;;;;;;5033192;28;20413;-79
2021/09/19 03:05:42;;;;;;;5.23;2.80;;;;;;;;;;5015384;28;20425;-79
2021/09/19 03:08:08;;;;;;;3.20;2.50;;;;;;;;;;5035999;28;20779;-79
2021/09/19 03:10:36;;;;;;;4.70;3.17;;;;;;;;;;5036883;28;20408;-78
2021/09/19 03:13:02;;;;;;;6.20;2.83;;;;;;;;;;5036586;28;20437;-80
2021/09/19 03:15:28;;;;;;;4.13;2.80;;;;;;;;;;5036861;28;20455;-79
2021/09/19 03:17:55;;;;;;;3.90;3.60;;;;;;;;;;5035883;28;20916;-79
2021/09/19 03:20:20;;;;;;;4.00;3.27;;;;;;;;;;5036881;28;20404;-79
2021/09/19 03:22:46;;;;;;;4.40;2.90;;;;;;;;;;5036448;28;20432;-80
2021/09/19 03:25:13;;;;;;;6.63;2.67;;;;;;;;;;5036742;28;20799;-78
2021/09/19 03:27:39;;;;;;;4.73;3.13;;;;;;;;;;5036686;28;20492;-79
2021/09/19 03:30:07;;;;;;;4.00;3.30;;;;;;;;;;5036870;28;20470;-78
2021/09/19 03:32:33;;;;;;;4.03;2.90;;;;;;;;;;5036184;28;20441;-78
2021/09/19 03:34:59;;;;;;;2.87;2.57;;;;;;;;;;5036408;28;20448;-80
2021/09/19 03:37:25;;;;;;;4.00;3.27;;;;;;;;;;5036346;28;20439;-78
2021/09/19 03:39:51;;;;;;;5.73;2.77;;;;;;;;;;5036468;28;20416;-79
2021/09/19 03:42:17;;;;;;;3.70;3.40;;;;;;;;;;5035176;28;20474;-78
2021/09/19 03:44:43;;;;;;;6.37;3.60;;;;;;;;;;5036355;28;20829;-78
2021/09/19 03:47:09;;;;;;;8.13;3.93;;;;;;;;;;5036366;28;20474;-81
2021/09/19 03:49:35;;;;;;;3.77;3.03;;;;;;;;;;5036305;28;20444;-79
2021/09/19 03:52:01;;;;;;;7.00;3.50;;;;;;;;;;5034567;28;20411;-79
2021/09/19 03:54:27;;;;;;;5.23;4.17;;;;;;;;;;5036194;28;20463;-78
2021/09/19 03:56:53;;;;;;;6.80;4.67;;;;;;;;;;5034982;28;20411;-79
2021/09/19 03:59:19;;;;;;;5.90;4.47;;;;;;;;;;5036045;28;20928;-79
2021/09/19 04:01:45;;;;;;;9.27;4.33;;;;;;;;;;5034546;28;20443;-81
2021/09/19 04:04:11;;;;;;;11.27;4.30;;;;;;;;;;5034767;28;20417;-78
2021/09/19 04:06:37;;;;;;;5.27;3.40;;;;;;;;;;5035847;28;20416;-79
2021/09/19 04:09:03;;;;;;;6.77;3.53;;;;;;;;;;5034962;28;20413;-80
2021/09/19 04:11:29;;;;;;;8.03;3.73;;;;;;;;;;5035443;28;20799;-81
2021/09/19 04:13:55;;;;;;;7.47;3.33;;;;;;;;;;5036091;28;20413;-79
2021/09/19 04:16:21;;;;;;;6.67;3.27;;;;;;;;;;5034637;28;20836;-80
2021/09/19 04:18:47;;;;;;;6.17;3.37;;;;;;;;;;5034882;28;20495;-82
2021/09/19 04:21:13;;;;;;;6.40;4.10;;;;;;;;;;5035184;28;20956;-80
2021/09/19 04:23:39;;;;;;;5.87;4.03;;;;;;;;;;5035555;28;20405;-78
2021/09/19 04:26:05;;;;;;;6.90;4.03;;;;;;;;;;5035665;28;20420;-80
2021/09/19 04:28:31;;;;;;;8.73;4.40;;;;;;;;;;5035555;28;20409;-79
2021/09/19 04:30:57;;;;;;;12.00;5.50;;;;;;;;;;5035183;28;20405;-80
2021/09/19 04:33:23;;;;;;;11.43;4.07;;;;;;;;;;5035274;28;20791;-81
2021/09/19 04:35:49;;;;;;;7.47;4.27;;;;;;;;;;5035280;28;20555;-81
2021/09/19 04:38:15;;;;;;;9.70;5.17;;;;;;;;;;5035466;28;20499;-78
2021/09/19 04:40:41;;;;;;;12.03;5.17;;;;;;;;;;5035057;28;20460;-80
2021/09/19 04:43:11;;;;;;;11.80;5.50;;;;;;;;;;5035338;28;21011;-80
2021/09/19 04:45:37;;;;;;;9.30;5.27;;;;;;;;;;5035314;28;20416;-78
2021/09/19 04:48:04;;;;;;;8.40;4.87;;;;;;;;;;5035277;28;20421;-82
2021/09/19 04:50:30;;;;;;;10.00;5.10;;;;;;;;;;5035192;28;20467;-78
2021/09/19 04:52:56;;;;;;;9.70;5.13;;;;;;;;;;5034810;28;20440;-80
2021/09/19 04:55:22;;;;;;;9.77;4.97;;;;;;;;;;5034014;28;20819;-80
2021/09/19 04:57:48;;;;;;;6.20;4.40;;;;;;;;;;5035242;28;20818;-81
2021/09/19 05:00:14;;;;;;;9.63;4.63;;;;;;;;;;5033840;28;20443;-80
2021/09/19 05:02:40;;;;;;;7.40;4.97;;;;;;;;;;5033225;28;20440;-78
2021/09/19 05:05:07;;;;;;;9.60;5.30;;;;;;;;;;5034995;28;20413;-79
2021/09/19 05:07:33;;;;;;;17.87;4.93;;;;;;;;;;5034819;28;20428;-78
2021/09/19 05:09:59;;;;;;;6.28;4.40;;;;;;;;;;5034655;28;20786;-78
2021/09/19 05:12:25;;;;;;;4.33;3.80;;;;;;;;;;5034535;28;20654;-80
2021/09/19 05:14:53;;;;;;;4.07;3.77;;;;;;;;;;5034757;28;20555;-80
2021/09/19 05:17:19;;;;;;;4.73;3.27;;;;;;;;;;5034708;28;20421;-79
2021/09/19 05:19:45;;;;;;;4.33;3.77;;;;;;;;;;5034687;28;20468;-79
2021/09/19 05:22:11;;;;;;;3.93;3.50;;;;;;;;;;5034188;28;20439;-80
2021/09/19 05:24:37;;;;;;;4.37;3.30;;;;;;;;;;5016963;28;20479;-81
2021/09/19 05:27:03;;;;;;;3.47;3.17;;;;;;;;;;5034594;28;20423;-78
2021/09/19 05:29:29;;;;;;;4.53;3.90;;;;;;;;;;5034358;28;20417;-78
2021/09/19 05:31:55;;;;;;;3.50;3.20;;;;;;;;;;5033959;28;20925;-80
2021/09/19 05:34:21;;;;;;;4.40;3.60;;;;;;;;;;5032914;28;20532;-78
2021/09/19 05:36:46;;;;;;;4.03;3.00;;;;;;;;;;5034294;28;20409;-80
2021/09/19 05:39:12;;;;;;;3.63;3.10;;;;;;;;;;5034196;28;20444;-77
2021/09/19 05:41:38;;;;;;;3.67;3.37;;;;;;;;;;5033724;28;20504;-80
2021/09/19 05:44:04;;;;;;;3.03;2.73;;;;;;;;;;5034053;28;20409;-79
2021/09/19 05:46:30;;;;;;;4.37;3.33;;;;;;;;;;5034034;28;20417;-80
2021/09/19 05:48:56;;;;;;;3.37;3.10;;;;;;;;;;5034082;28;20408;-78
2021/09/19 05:51:22;;;;;;;3.10;2.80;;;;;;;;;;5033626;28;20439;-80
2021/09/19 05:53:49;;;;;;;3.10;2.70;;;;;;;;;;5033111;28;20417;-78
2021/09/19 05:56:15;;;;;;;3.63;3.30;;;;;;;;;;5033811;28;20811;-80
2021/09/19 05:58:41;;;;;;;2.83;2.63;;;;;;;;;;5033910;28;20413;-79
2021/09/19 06:01:07;;;;;;;2.93;2.60;;;;;;;;;;5033475;28;20401;-80
2021/09/19 06:03:33;;;;;;;3.87;3.43;;;;;;;;;;5033780;28;20487;-79
2021/09/19 06:05:59;;;;;;;3.23;3.00;;;;;;;;;;5033799;28;20902;-79
2021/09/19 06:08:25;;;;;;;3.43;3.13;;;;;;;;;;5033577;28;20413;-80
2021/09/19 06:10:51;;;;;;;3.67;3.37;;;;;;;;;;5032314;28;20932;-78
2021/09/19 06:13:17;;;;;;;3.33;3.03;;;;;;;;;;5033718;28;20404;-79
2021/09/19 06:15:43;;;;;;;5.33;3.30;;;;;;;;;;5032548;28;20480;-81
2021/09/19 06:18:09;;;;;;;3.80;3.50;;;;;;;;;;5033756;28;20897;-81
2021/09/19 06:20:35;;;;;;;3.73;3.43;;;;;;;;;;5032040;28;20420;-81
2021/09/19 06:23:01;;;;;;;4.33;4.03;;;;;;;;;;5031967;28;20440;-78
2021/09/19 06:25:27;;;;;;;3.30;3.00;;;;;;;;;;5033522;28;20862;-81
2021/09/19 06:27:53;;;;;;;4.67;3.47;;;;;;;;;;5032404;28;20409;-80
2021/09/19 06:30:19;;;;;;;3.63;3.33;;;;;;;;;;5032141;28;20424;-81
2021/09/19 06:32:45;;;;;;;4.93;3.50;;;;;;;;;;5031543;28;20436;-82
2021/09/19 06:35:11;;;;;;;4.50;4.10;;;;;;;;;;5033426;28;20479;-79
2021/09/19 06:37:37;;;;;;;3.77;3.47;;;;;;;;;;5033548;28;20425;-82
2021/09/19 06:40:04;;;;;;;10.60;3.67;;;;;;;;;;5032084;28;20512;-80
2021/09/19 06:42:30;;;;;;;4.40;4.00;;;;;;;;;;5032499;28;20487;-82
2021/09/19 06:44:56;;;;;;;4.50;3.63;;;;;;;;;;5032217;28;20421;-83
2021/09/19 06:47:22;;;;;;;12.47;4.23;;;;;;;;;;5033412;28;20448;-82
2021/09/19 06:49:48;;;;;;;6.17;4.07;;;;;;;;;;5033475;28;20399;-80
2021/09/19 06:52:14;;;;;;;6.40;4.50;;;;;;;;;;5043784;28;20470;-80
2021/09/19 06:54:42;;;;;;;6.87;4.30;;;;;;;;;;5051646;28;20462;-82
2021/09/19 06:57:08;;;;;;;5.03;4.20;;;;;;;;;;5053127;28;20487;-84
2021/09/19 06:59:34;;;;;;;13.37;4.90;;;;;;;;;;5053185;28;20836;-84
2021/09/19 07:02:00;;;;;;;5.50;4.40;;;;;;;;;;5040148;28;20429;-81
2021/09/19 07:04:26;;;;;;;5.07;4.30;;;;;;;;;;5033490;28;20405;-80
2021/09/19 07:06:52;;;;;;;8.33;5.40;;;;;;;;;;5032966;28;20918;-83
2021/09/19 07:09:18;;;;;;;8.03;4.77;;;;;;;;;;5033507;28;20383;-82
2021/09/19 07:11:44;;;;;;;7.13;5.10;;;;;;;;;;5031866;28;20454;-81
2021/09/19 07:14:10;;;;;;;5.57;4.50;;;;;;;;;;5033261;28;20740;-78
2021/09/19 07:16:36;;;;;;;5.40;4.50;;;;;;;;;;5033048;28;20455;-79
2021/09/19 07:19:02;;;;;;;6.77;4.43;;;;;;;;;;5032895;28;20412;-80
2021/09/19 07:21:28;;;;;;;6.10;4.90;;;;;;;;;;5032505;28;20950;-80
2021/09/19 07:23:54;;;;;;;9.13;5.30;;;;;;;;;;5032896;28;20413;-79
2021/09/19 07:26:21;;;;;;;8.90;4.80;;;;;;;;;;5032822;28;20424;-80
2021/09/19 07:28:47;;;;;;;8.73;5.60;;;;;;;;;;5031701;28;20470;-79
2021/09/19 07:31:13;;;;;;;9.43;4.73;;;;;;;;;;5032601;28;20429;-80
2021/09/19 07:33:39;;;;;;;7.63;4.97;;;;;;;;;;5032769;28;20435;-78
2021/09/19 07:36:06;;;;;;;5.93;4.47;;;;;;;;;;5031462;28;20480;-77
2021/09/19 07:38:32;;;;;;;9.20;4.70;;;;;;;;;;5032862;28;20388;-79
2021/09/19 07:40:59;;;;;;;5.27;3.60;;;;;;;;;;5032248;28;20503;-79
2021/09/19 07:43:25;;;;;;;5.03;4.30;;;;;;;;;;5032630;28;20939;-81
2021/09/19 07:45:51;;;;;;;4.20;3.80;;;;;;;;;;5033030;28;20436;-79
2021/09/19 07:48:20;;;;;;;7.20;3.83;;;;;;;;;;5031458;28;20400;-82
2021/09/19 07:50:46;;;;;;;5.40;4.00;;;;;;;;;;5032319;28;20383;-81
2021/09/19 07:53:12;;;;;;;5.50;3.57;;;;;;;;;;5031553;28;20407;-79
2021/09/19 07:55:38;;;;;;;4.57;4.17;;;;;;;;;;5036357;28;20539;-79
2021/09/19 07:58:04;;;;;;;4.13;3.73;;;;;;;;;;5036427;28;20409;-82
2021/09/19 08:00:30;;;;;;;4.83;4.33;;;;;;;;;;5036301;28;20412;-79
2021/09/19 08:02:56;;;;;;;6.17;4.00;;;;;;;;;;5035900;28;20520;-77
2021/09/19 08:05:23;;;;;;;10.57;4.00;;;;;;;;;;5036153;28;20502;-82
2021/09/19 08:07:49;;;;;;;10.53;4.60;;;;;;;;;;5036083;28;20505;-80
2021/09/19 08:10:15;;;;;;;6.60;3.97;;;;;;;;;;5036059;28;20495;-78
2021/09/19 08:12:46;;;;;;;4.70;4.27;;;;;;;;;;5035886;28;20415;-78
2021/09/19 08:15:13;;;;;;;4.23;3.53;;;;;;;;;;5035796;28;20438;-80
2021/09/19 08:17:39;;;;;;;6.03;3.93;;;;;;;;;;5036145;28;20825;-78
2021/09/19 08:20:05;;;;;;;6.13;3.43;;;;;;;;;;5034750;28;20395;-81
2021/09/19 08:22:31;;;;;;;4.67;3.60;;;;;;;;;;5035438;28;20407;-79
2021/09/19 08:25:00;;;;;;;5.13;3.33;;;;;;;;;;5035835;28;20453;-78
2021/09/19 08:27:26;;;;;;;5.63;3.27;;;;;;;;;;5035664;28;20459;-81
2021/09/19 08:29:52;;;;;;;4.27;2.80;;;;;;;;;;5035744;28;20427;-79
2021/09/19 08:32:18;;;;;;;3.57;3.13;;;;;;;;;;5035217;28;20436;-80
2021/09/19 08:34:44;;;;;;;3.03;2.73;;;;;;;;;;5034340;28;20497;-79
2021/09/19 08:37:10;;;;;;;2.50;2.17;;;;;;;;;;5035562;28;20884;-79
2021/09/19 08:39:36;;;;;;;4.40;2.80;;;;;;;;;;5035379;28;20384;-79
2021/09/19 08:42:02;;;;;;;2.20;2.00;;;;;;;;;;5035072;28;20408;-78
2021/09/19 08:44:29;;;;;;;2.00;1.87;;;;;;;;;;5035440;28;20749;-80
2021/09/19 08:46:55;;;;;;;2.40;2.03;;;;;;;;;;5035542;28;20387;-79
2021/09/19 08:49:21;;;;;;;2.20;2.00;;;;;;;;;;5035291;28;20555;-80
2021/09/19 08:51:47;;;;;;;2.10;1.90;;;;;;;;;;5035565;28;20527;-79
2021/09/19 08:54:13;;;;;;;2.13;1.70;;;;;;;;;;5037739;28;20383;-81
2021/09/19 08:56:39;;;;;;;1.97;1.80;;;;;;;;;;5035056;28;20543;-79
2021/09/19 08:59:05;;;;;;;2.23;2.03;;;;;;;;;;5035266;28;20782;-79
2021/09/19 09:01:31;;;;;;;2.10;1.90;;;;;;;;;;5036504;28;20433;-83
2021/09/19 09:04:06;;;;;;;2.10;1.97;;;;;;;;;;5034983;28;20913;-81
2021/09/19 09:06:38;;;;;;;1.77;1.60;;;;;;;;;;5034641;28;20481;-78
2021/09/19 09:09:15;;;;;;;1.80;1.50;;;;;;;;;;5035061;28;20417;-81
2021/09/19 09:11:41;;;;;;;2.17;1.97;;;;;;;;;;5034373;28;20440;-80
2021/09/19 09:14:07;;;;;;;2.23;2.03;;;;;;;;;;5034854;28;20783;-79
2021/09/19 09:16:33;;;;;;;1.83;1.60;;;;;;;;;;5034666;28;20464;-80
2021/09/19 09:18:59;;;;;;;2.33;1.80;;;;;;;;;;5033519;28;20413;-81
2021/09/19 09:21:26;;;;;;;3.50;1.97;;;;;;;;;;5032978;28;20956;-80
2021/09/19 09:23:53;;;;;;;1.80;1.70;;;;;;;;;;5034554;28;20417;-80
2021/09/19 09:26:37;;;;;;;1.70;1.60;;;;;;;;;;5034644;28;20413;-80
2021/09/19 09:29:03;;;;;;;2.03;1.83;;;;;;;;;;5038725;28;20412;-81
2021/09/19 09:31:29;;;;;;;1.83;1.73;;;;;;;;;;5040477;28;20486;-76
2021/09/19 09:33:56;;;;;;;1.87;1.77;;;;;;;;;;5049508;28;20791;-79
2021/09/19 09:36:30;;;;;;;2.03;1.67;;;;;;;;;;5044306;28;20488;-77
2021/09/19 09:38:56;;;;;;;1.60;1.50;;;;;;;;;;5040968;28;20413;-79
2021/09/19 09:41:37;;;;;;;1.80;1.20;;;;;;;;;;5045292;28;20428;-80
2021/09/19 09:44:03;;;;;;;2.10;1.90;;;;;;;;;;5054105;28;20400;-79
2021/09/19 09:46:29;;;;;;;2.37;1.70;;;;;;;;;;5054014;28;20920;-81
2021/09/19 09:48:55;;;;;;;1.73;1.40;;;;;;;;;;5054026;28;20404;-82
2021/09/19 09:51:23;;;;;;;1.53;1.43;;;;;;;;;;5047426;28;20431;-82
2021/09/19 09:54:07;;;;;;;2.10;1.43;;;;;;;;;;5042433;28;20468;-79
2021/09/19 09:56:33;;;;;;;1.77;1.50;;;;;;;;;;5040323;28;20832;-81
2021/09/19 09:58:59;;;;;;;1.30;1.20;;;;;;;;;;5052580;28;20420;-81
2021/09/19 10:01:25;;;;;;;1.60;1.50;;;;;;;;;;5042342;28;20797;-81
2021/09/19 10:03:51;;;;;;;1.60;1.50;;;;;;;;;;5039524;28;20853;-79
2021/09/19 10:06:17;;;;;;;1.70;1.60;;;;;;;;;;5033833;28;20412;-80
2021/09/19 10:08:44;;;;;;;1.60;1.40;;;;;;;;;;5033949;28;20421;-79
2021/09/19 10:11:10;;;;;;;2.60;1.60;;;;;;;;;;5033382;28;20748;-80
2021/09/19 10:13:40;;;;;;;2.17;1.60;;;;;;;;;;5033779;28;20419;-81
2021/09/19 10:16:07;;;;;;;1.47;1.37;;;;;;;;;;5033230;28;20468;-78
2021/09/19 10:18:33;;;;;;;2.70;1.70;;;;;;;;;;5039259;28;20416;-77
2021/09/19 10:21:02;;;;;;;3.40;1.43;;;;;;;;;;5051949;28;20415;-79
2021/09/19 10:23:29;;;;;;;2.10;1.90;;;;;;;;;;5053471;28;20462;-78
2021/09/19 10:25:56;;;;;;;2.80;1.40;;;;;;;;;;5053398;28;20426;-76
2021/09/19 10:28:22;;;;;;;3.40;1.80;;;;;;;;;;5049071;28;20425;-77
2021/09/19 10:31:07;;;;;;;1.80;1.70;;;;;;;;;;5031733;28;20421;-77
2021/09/19 10:33:37;;;;;;;2.57;1.90;;;;;;;;;;5033176;28;20460;-77
2021/09/19 10:36:20;;;;;;;1.60;1.43;;;;;;;;;;5033111;28;20534;-76
2021/09/19 10:38:46;;;;;;;1.80;1.50;;;;;;;;;;5041131;28;20424;-78
2021/09/19 10:41:14;;;;;;;1.63;1.53;;;;;;;;;;5051504;28;20439;-75
2021/09/19 10:43:56;;;;;;;2.13;1.57;;;;;;;;;;5053090;28;20915;-78
2021/09/19 10:46:34;;;;;;;4.10;1.97;;;;;;;;;;5050478;28;20420;-80
2021/09/19 10:49:27;;;;;;;2.50;1.30;;;;;;;;;;5052934;28;20482;-76
2021/09/19 10:52:02;;;;;;;2.60;1.50;;;;;;;;;;5052468;28;20526;-79
2021/09/19 10:54:46;;;;;;;3.20;1.70;;;;;;;;;;5052743;28;21061;-80
2021/09/19 10:57:20;;;;;;;1.97;1.63;;;;;;;;;;5052735;28;20919;-80
2021/09/19 11:00:05;;;;;;;1.40;1.30;;;;;;;;;;5051747;28;20801;-77
2021/09/19 11:02:31;;;;;;;1.70;1.60;;;;;;;;;;5051010;28;20443;-79
2021/09/19 11:05:16;;;;;;;1.37;1.27;;;;;;;;;;5051815;28;20837;-78
2021/09/19 11:07:42;;;;;;;1.73;1.57;;;;;;;;;;5052764;28;20416;-77
2021/09/19 11:10:10;;;;;;;1.93;1.80;;;;;;;;;;5051406;28;20424;-78
2021/09/19 11:12:43;;;;;;;2.97;1.57;;;;;;;;;;5051410;28;20442;-76
2021/09/19 11:15:11;;;;;;;4.23;1.80;;;;;;;;;;5052993;28;20464;-77
2021/09/19 11:17:43;;;;;;;2.03;1.83;;;;;;;;;;5052497;28;20491;-77
2021/09/19 11:20:12;;;;;;;1.70;1.53;;;;;;;;;;5052576;28;20939;-76
2021/09/19 11:22:42;;;;;;;2.00;1.80;;;;;;;;;;5051793;28;20424;-78
2021/09/19 11:25:09;;;;;;;1.90;1.70;;;;;;;;;;5052707;28;20408;-78
2021/09/19 11:27:35;;;;;;;1.97;1.63;;;;;;;;;;5052925;28;20408;-78
2021/09/19 11:30:01;;;;;;;1.63;1.53;;;;;;;;;;5056453;28;20447;-77
2021/09/19 11:32:28;;;;;;;4.63;2.40;;;;;;;;;;5054564;28;20470;-77
2021/09/19 11:34:55;;;;;;;1.70;1.50;;;;;;;;;;5056216;28;20459;-79
2021/09/19 11:37:21;;;;;;;2.10;1.90;;;;;;;;;;5056317;28;20440;-78
2021/09/19 11:39:47;;;;;;;1.87;1.30;;;;;;;;;;5055627;28;20762;-78
2021/09/19 11:42:14;;;;;;;2.00;1.80;;;;;;;;;;5054333;28;20427;-79
2021/09/19 11:44:44;;;;;;;1.63;1.50;;;;;;;;;;5055326;28;20951;-80
2021/09/19 11:47:12;;;;;;;1.33;1.23;;;;;;;;;;5056104;28;20411;-78
2021/09/19 11:49:42;;;;;;;1.33;1.23;;;;;;;;;;5055999;28;20415;-80
2021/09/19 11:52:08;;;;;;;2.23;1.50;;;;;;;;;;5055257;28;20947;-81
2021/09/19 11:54:35;;;;;;;1.50;1.40;;;;;;;;;;5038101;28;20424;-79
2021/09/19 11:57:01;;;;;;;1.33;1.10;;;;;;;;;;5055850;28;20460;-80
2021/09/19 11:59:27;;;;;;;3.27;1.90;;;;;;;;;;5054554;28;20438;-80
2021/09/19 12:01:55;;;;;;;3.73;1.40;;;;;;;;;;5055558;28;20871;-78
2021/09/19 12:04:21;;;;;;;1.60;1.50;;;;;;;;;;5055923;28;20415;-77
2021/09/19 12:06:48;;;;;;;1.80;1.50;;;;;;;;;;5054898;28;20416;-80
2021/09/19 12:09:18;;;;;;;1.40;1.30;;;;;;;;;;5055680;28;20909;-79
2021/09/19 12:11:49;;;;;;;1.60;1.50;;;;;;;;;;5055259;28;20420;-79
2021/09/19 12:14:25;;;;;;;1.73;1.60;;;;;;;;;;5055806;28;20717;-80
2021/09/19 12:17:00;;;;;;;2.70;1.70;;;;;;;;;;5054972;28;20456;-78
2021/09/19 12:19:27;;;;;;;1.30;1.20;;;;;;;;;;5055496;28;20901;-78
2021/09/19 12:21:58;;;;;;;1.43;1.33;;;;;;;;;;5053448;28;20434;-77
2021/09/19 12:24:25;;;;;;;2.50;1.40;;;;;;;;;;5055507;28;20885;-76
2021/09/19 12:26:51;;;;;;;2.33;1.87;;;;;;;;;;5055404;28;20431;-76
2021/09/19 12:29:19;;;;;;;1.50;1.40;;;;;;;;;;5055485;28;20413;-78
2021/09/19 12:31:45;;;;;;;1.80;1.70;;;;;;;;;;5055173;28;20518;-77
2021/09/19 12:34:12;;;;;;;3.97;1.67;;;;;;;;;;5055115;28;20523;-77
2021/09/19 12:36:54;;;;;;;1.70;1.50;;;;;;;;;;5055294;28;20460;-77
2021/09/19 12:39:22;;;;;;;1.90;1.70;;;;;;;;;;5054491;28;20409;-76
2021/09/19 12:41:53;;;;;;;1.70;1.60;;;;;;;;;;5054546;28;20432;-77
2021/09/19 12:44:20;;;;;;;1.80;1.70;;;;;;;;;;5055038;28;20415;-77
2021/09/19 12:46:48;;;;;;;2.13;1.93;;;;;;;;;;5055007;28;20503;-78
2021/09/19 12:49:18;;;;;;;3.03;1.60;;;;;;;;;;5053824;28;21015;-80
2021/09/19 12:52:00;;;;;;;2.57;2.27;;;;;;;;;;5054542;28;20436;-79
2021/09/19 12:54:26;;;;;;;3.63;2.00;;;;;;;;;;5054936;28;20412;-78
2021/09/19 12:56:52;;;;;;;2.03;1.83;;;;;;;;;;5054881;28;20405;-80
2021/09/19 12:59:20;;;;;;;2.43;2.00;;;;;;;;;;5053539;28;20431;-81
2021/09/19 13:01:46;;;;;;;1.77;1.67;;;;;;;;;;5054403;28;20799;-79
2021/09/19 13:04:12;;;;;;;2.23;2.03;;;;;;;;;;5053277;28;21055;-79
2021/09/19 13:06:38;;;;;;;1.90;1.70;;;;;;;;;;5054773;28;20416;-79
2021/09/19 13:09:04;;;;;;;2.40;2.20;;;;;;;;;;5054552;28;20420;-79
2021/09/19 13:11:30;;;;;;;1.60;1.50;;;;;;;;;;5054006;28;20518;-79
2021/09/19 13:13:56;;;;;;;3.20;2.17;;;;;;;;;;5054444;28;20509;-79
2021/09/19 13:16:22;;;;;;;2.83;2.40;;;;;;;;;;5054391;28;20513;-80
2021/09/19 13:18:48;;;;;;;1.97;1.87;;;;;;;;;;5054445;28;20417;-78
2021/09/19 13:21:14;;;;;;;2.00;1.90;;;;;;;;;;5053308;28;20446;-80
2021/09/19 13:23:40;;;;;;;1.70;1.60;;;;;;;;;;5053063;28;20412;-79
2021/09/19 13:26:06;;;;;;;2.63;1.90;;;;;;;;;;5054588;28;20414;-85
2021/09/19 13:28:32;;;;;;;2.07;1.90;;;;;;;;;;5053354;28;20496;-80
2021/09/19 13:30:58;;;;;;;2.27;2.07;;;;;;;;;;5053063;28;20845;-81
2021/09/19 13:33:24;;;;;;;2.23;2.03;;;;;;;;;;5054463;28;20526;-77
2021/09/19 13:35:50;;;;;;;2.40;1.80;;;;;;;;;;5054326;28;20530;-81
2021/09/19 13:38:16;;;;;;;2.20;2.00;;;;;;;;;;5054323;28;20927;-80
2021/09/19 13:40:42;;;;;;;2.27;2.07;;;;;;;;;;5052895;28;20499;-81
2021/09/19 13:43:08;;;;;;;1.70;1.60;;;;;;;;;;5054144;28;20932;-81
2021/09/19 13:45:34;;;;;;;2.20;2.00;;;;;;;;;;5054164;28;20506;-78
2021/09/19 13:48:02;;;;;;;2.00;1.90;;;;;;;;;;5054170;28;20502;-82
2021/09/19 13:50:28;;;;;;;1.83;1.60;;;;;;;;;;5052732;28;20436;-81
2021/09/19 13:52:55;;;;;;;1.83;1.73;;;;;;;;;;5050778;28;20435;-81
2021/09/19 13:55:21;;;;;;;4.13;2.10;;;;;;;;;;5043655;28;20507;-79
2021/09/19 13:57:47;;;;;;;2.13;2.03;;;;;;;;;;5033989;28;20417;-81
2021/09/19 14:00:13;;;;;;;2.30;2.10;;;;;;;;;;5035822;28;20424;-82
2021/09/19 14:02:39;;;;;;;2.37;2.17;;;;;;;;;;5042552;28;20879;-83
2021/09/19 14:05:06;;;;;;;4.00;2.20;;;;;;;;;;5054250;28;20918;-81
2021/09/19 14:07:32;;;;;;;2.40;2.20;;;;;;;;;;5053706;28;20386;-80
2021/09/19 14:09:58;;;;;;;2.47;2.27;;;;;;;;;;5036169;28;20424;-79
2021/09/19 14:12:25;;;;;;;2.17;1.97;;;;;;;;;;5053351;28;20431;-82
2021/09/19 14:14:51;;;;;;;2.60;2.20;;;;;;;;;;5053928;28;20543;-81
2021/09/19 14:17:18;;;;;;;2.23;2.03;;;;;;;;;;5052278;28;20458;-79
2021/09/19 14:19:44;;;;;;;2.43;2.23;;;;;;;;;;5052231;28;20423;-79
2021/09/19 14:22:10;;;;;;;2.47;2.20;;;;;;;;;;5053325;28;20432;-82
2021/09/19 14:24:36;;;;;;;2.57;2.37;;;;;;;;;;5052953;28;20416;-80
2021/09/19 14:27:02;;;;;;;2.20;2.00;;;;;;;;;;5053796;28;20522;-80
2021/09/19 14:29:28;;;;;;;2.33;1.90;;;;;;;;;;5053435;28;20400;-79
2021/09/19 14:31:54;;;;;;;2.73;1.90;;;;;;;;;;5051823;28;20432;-81
2021/09/19 14:34:20;;;;;;;2.00;1.90;;;;;;;;;;5052007;28;20916;-80
2021/09/19 14:36:47;;;;;;;2.00;1.90;;;;;;;;;;5053317;28;20613;-81
2021/09/19 14:39:13;;;;;;;2.67;2.47;;;;;;;;;;5053229;28;20477;-82
2021/09/19 14:41:39;;;;;;;2.03;1.93;;;;;;;;;;5053275;28;20427;-81
2021/09/19 14:44:06;;;;;;;5.33;2.60;;;;;;;;;;5052357;28;20412;-79